sensor_id;sensor_type;location;lat;lon;timestamp;P1;durP1;ratioP1;P2;durP2;ratioP2
59880;SDS011;45751;51.380;10.326;2023-11-18T00:01:20;8.30;;;3.45;;
59880;SDS011;45751;51.380;10.326;2023-11-18T00:03:46;9.75;;;4.03;;
59880;SDS011;45751;51.380;10.326;2023-11-18T00:06:11;8.43;;;2.80;;
59880;SDS011;45751;51.380;10.326;2023-11-18T00:08:38;7.22;;;2.80;;
59880;SDS011;45751;51.380;10.326;2023-11-18T00:11:03;9.60;;;3.45;;
59880;SDS011;45751;51.380;10.326;2023-11-18T00:13:29;9.63;;;4.40;;
59880;SDS011;45751;51.380;10.326;2023-11-18T00:15:55;10.18;;;3.17;;
59880;SDS011;45751;51.380;10.326;2023-11-18T00:18:21;14.65;;;4.88;;
59880;SDS011;45751;51.380;10.326;2023-11-18T00:20:47;9.63;;;3.47;;
59880;SDS011;45751;51.380;10.326;2023-11-18T00:23:16;11.05;;;3.83;;
59880;SDS011;45751;51.380;10.326;2023-11-18T00:25:42;8.75;;;3.83;;
59880;SDS011;45751;51.380;10.326;2023-11-18T00:28:10;10.35;;;4.32;;
59880;SDS011;45751;51.380;10.326;2023-11-18T00:30:38;8.10;;;3.38;;
59880;SDS011;45751;51.380;10.326;2023-11-18T00:33:04;11.27;;;4.15;;
59880;SDS011;45751;51.380;10.326;2023-11-18T00:35:30;11.20;;;3.97;;
59880;SDS011;45751;51.380;10.326;2023-11-18T00:37:59;11.90;;;4.97;;
59880;SDS011;45751;51.380;10.326;2023-11-18T00:40:25;12.63;;;4.60;;
59880;SDS011;45751;51.380;10.326;2023-11-18T00:42:55;12.57;;;4.72;;
59880;SDS011;45751;51.380;10.326;2023-11-18T00:45:21;10.43;;;4.07;;
59880;SDS011;45751;51.380;10.326;2023-11-18T00:47:47;13.00;;;5.20;;
59880;SDS011;45751;51.380;10.326;2023-11-18T00:50:13;9.77;;;4.65;;
59880;SDS011;45751;51.380;10.326;2023-11-18T00:52:39;10.77;;;4.63;;
59880;SDS011;45751;51.380;10.326;2023-11-18T00:55:09;10.88;;;4.22;;
59880;SDS011;45751;51.380;10.326;2023-11-18T00:57:38;12.70;;;4.65;;
59880;SDS011;45751;51.380;10.326;2023-11-18T01:00:07;10.20;;;4.40;;
59880;SDS011;45751;51.380;10.326;2023-11-18T01:02:39;11.48;;;4.90;;
59880;SDS011;45751;51.380;10.326;2023-11-18T01:05:06;10.93;;;5.43;;
59880;SDS011;45751;51.380;10.326;2023-11-18T01:07:34;12.55;;;5.40;;
59880;SDS011;45751;51.380;10.326;2023-11-18T01:10:01;12.32;;;5.18;;
59880;SDS011;45751;51.380;10.326;2023-11-18T01:12:27;16.00;;;5.88;;
59880;SDS011;45751;51.380;10.326;2023-11-18T01:14:52;9.40;;;3.42;;
59880;SDS011;45751;51.380;10.326;2023-11-18T01:17:18;9.35;;;3.65;;
59880;SDS011;45751;51.380;10.326;2023-11-18T01:19:47;15.65;;;5.45;;
59880;SDS011;45751;51.380;10.326;2023-11-18T01:22:12;13.63;;;5.80;;
59880;SDS011;45751;51.380;10.326;2023-11-18T01:24:39;15.15;;;7.07;;
59880;SDS011;45751;51.380;10.326;2023-11-18T01:27:05;16.20;;;5.13;;
59880;SDS011;45751;51.380;10.326;2023-11-18T01:29:34;11.07;;;4.45;;
59880;SDS011;45751;51.380;10.326;2023-11-18T01:32:00;11.23;;;4.78;;
59880;SDS011;45751;51.380;10.326;2023-11-18T01:34:33;12.13;;;5.32;;
59880;SDS011;45751;51.380;10.326;2023-11-18T01:37:00;12.68;;;4.88;;
59880;SDS011;45751;51.380;10.326;2023-11-18T01:39:26;12.82;;;5.32;;
59880;SDS011;45751;51.380;10.326;2023-11-18T01:41:52;12.32;;;5.53;;
59880;SDS011;45751;51.380;10.326;2023-11-18T01:44:18;12.52;;;4.18;;
59880;SDS011;45751;51.380;10.326;2023-11-18T01:49:15;15.35;;;5.20;;
59880;SDS011;45751;51.380;10.326;2023-11-18T01:51:43;13.43;;;5.18;;
59880;SDS011;45751;51.380;10.326;2023-11-18T01:54:10;14.20;;;5.18;;
59880;SDS011;45751;51.380;10.326;2023-11-18T01:56:41;13.80;;;4.93;;
59880;SDS011;45751;51.380;10.326;2023-11-18T01:59:09;12.18;;;5.38;;
59880;SDS011;45751;51.380;10.326;2023-11-18T02:01:35;13.07;;;6.00;;
59880;SDS011;45751;51.380;10.326;2023-11-18T02:04:02;14.18;;;5.28;;
59880;SDS011;45751;51.380;10.326;2023-11-18T02:06:31;11.48;;;5.03;;
59880;SDS011;45751;51.380;10.326;2023-11-18T02:08:56;11.52;;;5.22;;
59880;SDS011;45751;51.380;10.326;2023-11-18T02:11:26;14.23;;;6.13;;
59880;SDS011;45751;51.380;10.326;2023-11-18T02:13:58;13.77;;;4.95;;
59880;SDS011;45751;51.380;10.326;2023-11-18T02:16:28;15.45;;;6.00;;
59880;SDS011;45751;51.380;10.326;2023-11-18T02:18:54;13.25;;;5.47;;
59880;SDS011;45751;51.380;10.326;2023-11-18T02:21:21;13.07;;;5.45;;
59880;SDS011;45751;51.380;10.326;2023-11-18T02:23:48;16.25;;;6.68;;
59880;SDS011;45751;51.380;10.326;2023-11-18T02:26:23;18.33;;;8.18;;
59880;SDS011;45751;51.380;10.326;2023-11-18T02:28:51;17.10;;;7.03;;
59880;SDS011;45751;51.380;10.326;2023-11-18T02:31:30;15.57;;;6.47;;
59880;SDS011;45751;51.380;10.326;2023-11-18T02:34:05;21.65;;;6.68;;
59880;SDS011;45751;51.380;10.326;2023-11-18T02:36:46;19.15;;;7.30;;
59880;SDS011;45751;51.380;10.326;2023-11-18T02:39:32;21.08;;;7.68;;
59880;SDS011;45751;51.380;10.326;2023-11-18T02:42:05;22.17;;;8.00;;
59880;SDS011;45751;51.380;10.326;2023-11-18T02:44:36;15.02;;;6.72;;
59880;SDS011;45751;51.380;10.326;2023-11-18T02:47:03;14.27;;;7.00;;
59880;SDS011;45751;51.380;10.326;2023-11-18T02:49:30;23.58;;;9.02;;
59880;SDS011;45751;51.380;10.326;2023-11-18T02:51:57;22.83;;;8.70;;
59880;SDS011;45751;51.380;10.326;2023-11-18T02:54:23;12.98;;;7.03;;
59880;SDS011;45751;51.380;10.326;2023-11-18T02:56:48;21.17;;;6.80;;
59880;SDS011;45751;51.380;10.326;2023-11-18T02:59:15;18.45;;;6.97;;
59880;SDS011;45751;51.380;10.326;2023-11-18T03:01:41;16.65;;;5.47;;
59880;SDS011;45751;51.380;10.326;2023-11-18T03:04:07;12.93;;;6.32;;
59880;SDS011;45751;51.380;10.326;2023-11-18T03:06:33;16.90;;;7.13;;
59880;SDS011;45751;51.380;10.326;2023-11-18T03:09:01;14.43;;;6.40;;
59880;SDS011;45751;51.380;10.326;2023-11-18T03:11:32;14.25;;;5.47;;
59880;SDS011;45751;51.380;10.326;2023-11-18T03:13:58;15.23;;;6.13;;
59880;SDS011;45751;51.380;10.326;2023-11-18T03:16:25;10.80;;;4.88;;
59880;SDS011;45751;51.380;10.326;2023-11-18T03:18:51;18.30;;;6.05;;
59880;SDS011;45751;51.380;10.326;2023-11-18T03:21:17;12.50;;;4.32;;
59880;SDS011;45751;51.380;10.326;2023-11-18T03:23:44;12.55;;;5.75;;
59880;SDS011;45751;51.380;10.326;2023-11-18T03:26:10;21.75;;;7.20;;
59880;SDS011;45751;51.380;10.326;2023-11-18T03:28:36;14.13;;;6.13;;
59880;SDS011;45751;51.380;10.326;2023-11-18T03:31:06;11.38;;;4.70;;
59880;SDS011;45751;51.380;10.326;2023-11-18T03:33:32;15.60;;;4.88;;
59880;SDS011;45751;51.380;10.326;2023-11-18T03:35:58;18.42;;;5.75;;
59880;SDS011;45751;51.380;10.326;2023-11-18T03:38:24;11.98;;;5.10;;
59880;SDS011;45751;51.380;10.326;2023-11-18T03:40:52;10.13;;;4.55;;
59880;SDS011;45751;51.380;10.326;2023-11-18T03:43:18;16.42;;;6.40;;
59880;SDS011;45751;51.380;10.326;2023-11-18T03:45:45;15.43;;;7.05;;
59880;SDS011;45751;51.380;10.326;2023-11-18T03:48:10;17.40;;;5.65;;
59880;SDS011;45751;51.380;10.326;2023-11-18T03:50:42;14.35;;;6.88;;
59880;SDS011;45751;51.380;10.326;2023-11-18T03:53:10;10.23;;;4.38;;
59880;SDS011;45751;51.380;10.326;2023-11-18T03:55:36;19.48;;;6.47;;
59880;SDS011;45751;51.380;10.326;2023-11-18T03:58:02;15.55;;;6.00;;
59880;SDS011;45751;51.380;10.326;2023-11-18T04:00:27;11.10;;;4.82;;
59880;SDS011;45751;51.380;10.326;2023-11-18T04:02:57;15.63;;;6.03;;
59880;SDS011;45751;51.380;10.326;2023-11-18T04:05:24;12.80;;;4.50;;
59880;SDS011;45751;51.380;10.326;2023-11-18T04:07:50;12.50;;;6.32;;
59880;SDS011;45751;51.380;10.326;2023-11-18T04:10:16;13.10;;;4.93;;
59880;SDS011;45751;51.380;10.326;2023-11-18T04:12:43;13.05;;;6.78;;
59880;SDS011;45751;51.380;10.326;2023-11-18T04:15:12;13.20;;;5.95;;
59880;SDS011;45751;51.380;10.326;2023-11-18T04:17:37;13.88;;;6.18;;
59880;SDS011;45751;51.380;10.326;2023-11-18T04:20:04;18.17;;;6.75;;
59880;SDS011;45751;51.380;10.326;2023-11-18T04:22:37;15.63;;;7.55;;
59880;SDS011;45751;51.380;10.326;2023-11-18T04:25:04;16.30;;;7.10;;
59880;SDS011;45751;51.380;10.326;2023-11-18T04:27:31;13.15;;;5.10;;
59880;SDS011;45751;51.380;10.326;2023-11-18T04:29:57;15.27;;;4.47;;
59880;SDS011;45751;51.380;10.326;2023-11-18T04:32:26;11.35;;;5.65;;
59880;SDS011;45751;51.380;10.326;2023-11-18T04:34:52;14.95;;;6.00;;
59880;SDS011;45751;51.380;10.326;2023-11-18T04:37:18;16.25;;;6.32;;
59880;SDS011;45751;51.380;10.326;2023-11-18T04:39:43;13.30;;;5.70;;
59880;SDS011;45751;51.380;10.326;2023-11-18T04:42:09;7.60;;;4.25;;
59880;SDS011;45751;51.380;10.326;2023-11-18T04:44:35;14.98;;;6.03;;
59880;SDS011;45751;51.380;10.326;2023-11-18T04:47:02;11.30;;;4.28;;
59880;SDS011;45751;51.380;10.326;2023-11-18T04:49:27;13.43;;;6.00;;
59880;SDS011;45751;51.380;10.326;2023-11-18T04:51:53;15.65;;;6.32;;
59880;SDS011;45751;51.380;10.326;2023-11-18T04:54:19;12.32;;;5.50;;
59880;SDS011;45751;51.380;10.326;2023-11-18T04:56:44;16.65;;;6.32;;
59880;SDS011;45751;51.380;10.326;2023-11-18T04:59:11;13.30;;;5.32;;
59880;SDS011;45751;51.380;10.326;2023-11-18T05:01:37;13.90;;;6.13;;
59880;SDS011;45751;51.380;10.326;2023-11-18T05:04:03;13.52;;;5.95;;
59880;SDS011;45751;51.380;10.326;2023-11-18T05:06:29;15.40;;;6.18;;
59880;SDS011;45751;51.380;10.326;2023-11-18T05:08:54;10.07;;;4.72;;
59880;SDS011;45751;51.380;10.326;2023-11-18T05:11:20;13.98;;;4.85;;
59880;SDS011;45751;51.380;10.326;2023-11-18T05:13:46;12.13;;;6.03;;
59880;SDS011;45751;51.380;10.326;2023-11-18T05:16:11;13.30;;;5.10;;
59880;SDS011;45751;51.380;10.326;2023-11-18T05:18:37;11.35;;;5.00;;
59880;SDS011;45751;51.380;10.326;2023-11-18T05:21:04;17.67;;;5.65;;
59880;SDS011;45751;51.380;10.326;2023-11-18T05:23:30;10.30;;;4.15;;
59880;SDS011;45751;51.380;10.326;2023-11-18T05:25:59;12.85;;;5.28;;
59880;SDS011;45751;51.380;10.326;2023-11-18T05:28:26;12.63;;;4.82;;
59880;SDS011;45751;51.380;10.326;2023-11-18T05:30:51;12.85;;;5.35;;
59880;SDS011;45751;51.380;10.326;2023-11-18T05:33:17;12.80;;;5.43;;
59880;SDS011;45751;51.380;10.326;2023-11-18T05:35:44;12.27;;;6.10;;
59880;SDS011;45751;51.380;10.326;2023-11-18T05:38:17;12.30;;;4.70;;
59880;SDS011;45751;51.380;10.326;2023-11-18T05:40:52;9.32;;;3.97;;
59880;SDS011;45751;51.380;10.326;2023-11-18T05:43:29;15.05;;;6.95;;
59880;SDS011;45751;51.380;10.326;2023-11-18T05:46:06;8.05;;;4.05;;
59880;SDS011;45751;51.380;10.326;2023-11-18T05:48:49;10.32;;;4.97;;
59880;SDS011;45751;51.380;10.326;2023-11-18T05:51:18;12.60;;;5.20;;
59880;SDS011;45751;51.380;10.326;2023-11-18T05:53:48;12.68;;;5.60;;
59880;SDS011;45751;51.380;10.326;2023-11-18T05:56:14;13.23;;;4.10;;
59880;SDS011;45751;51.380;10.326;2023-11-18T05:58:42;11.88;;;4.40;;
59880;SDS011;45751;51.380;10.326;2023-11-18T06:01:11;14.05;;;6.53;;
59880;SDS011;45751;51.380;10.326;2023-11-18T06:03:38;9.75;;;3.15;;
59880;SDS011;45751;51.380;10.326;2023-11-18T06:06:15;10.00;;;3.83;;
59880;SDS011;45751;51.380;10.326;2023-11-18T06:08:41;9.23;;;4.00;;
59880;SDS011;45751;51.380;10.326;2023-11-18T06:11:08;12.73;;;4.43;;
59880;SDS011;45751;51.380;10.326;2023-11-18T06:13:59;8.80;;;2.90;;
59880;SDS011;45751;51.380;10.326;2023-11-18T06:16:24;8.80;;;3.67;;
59880;SDS011;45751;51.380;10.326;2023-11-18T06:18:52;9.27;;;4.07;;
59880;SDS011;45751;51.380;10.326;2023-11-18T06:21:22;11.07;;;4.25;;
59880;SDS011;45751;51.380;10.326;2023-11-18T06:23:58;10.88;;;5.05;;
59880;SDS011;45751;51.380;10.326;2023-11-18T06:26:25;8.55;;;4.65;;
59880;SDS011;45751;51.380;10.326;2023-11-18T06:28:52;14.93;;;5.13;;
59880;SDS011;45751;51.380;10.326;2023-11-18T06:31:19;10.57;;;4.85;;
59880;SDS011;45751;51.380;10.326;2023-11-18T06:33:46;8.88;;;4.63;;
59880;SDS011;45751;51.380;10.326;2023-11-18T06:38:51;10.00;;;4.35;;
59880;SDS011;45751;51.380;10.326;2023-11-18T06:41:18;10.10;;;5.37;;
59880;SDS011;45751;51.380;10.326;2023-11-18T06:43:45;9.55;;;4.85;;
59880;SDS011;45751;51.380;10.326;2023-11-18T06:46:17;11.93;;;5.35;;
59880;SDS011;45751;51.380;10.326;2023-11-18T06:48:46;10.85;;;3.45;;
59880;SDS011;45751;51.380;10.326;2023-11-18T06:51:13;9.55;;;3.47;;
59880;SDS011;45751;51.380;10.326;2023-11-18T06:53:40;9.85;;;4.15;;
59880;SDS011;45751;51.380;10.326;2023-11-18T06:56:06;11.93;;;5.35;;
59880;SDS011;45751;51.380;10.326;2023-11-18T06:58:32;9.00;;;4.18;;
59880;SDS011;45751;51.380;10.326;2023-11-18T07:00:59;11.10;;;4.35;;
59880;SDS011;45751;51.380;10.326;2023-11-18T07:03:24;14.25;;;5.55;;
59880;SDS011;45751;51.380;10.326;2023-11-18T07:05:51;9.85;;;4.10;;
59880;SDS011;45751;51.380;10.326;2023-11-18T07:08:16;10.70;;;3.92;;
59880;SDS011;45751;51.380;10.326;2023-11-18T07:10:42;14.82;;;4.93;;
59880;SDS011;45751;51.380;10.326;2023-11-18T07:13:08;9.80;;;4.45;;
59880;SDS011;45751;51.380;10.326;2023-11-18T07:15:34;10.43;;;3.63;;
59880;SDS011;45751;51.380;10.326;2023-11-18T07:18:01;12.75;;;4.15;;
59880;SDS011;45751;51.380;10.326;2023-11-18T07:20:27;7.95;;;3.55;;
59880;SDS011;45751;51.380;10.326;2023-11-18T07:22:52;15.70;;;4.72;;
59880;SDS011;45751;51.380;10.326;2023-11-18T07:25:19;6.53;;;3.47;;
59880;SDS011;45751;51.380;10.326;2023-11-18T07:27:45;9.02;;;4.00;;
59880;SDS011;45751;51.380;10.326;2023-11-18T07:30:11;8.65;;;3.33;;
59880;SDS011;45751;51.380;10.326;2023-11-18T07:32:37;9.73;;;3.97;;
59880;SDS011;45751;51.380;10.326;2023-11-18T07:35:05;13.18;;;4.97;;
59880;SDS011;45751;51.380;10.326;2023-11-18T07:37:34;6.90;;;2.60;;
59880;SDS011;45751;51.380;10.326;2023-11-18T07:40:04;5.65;;;1.95;;
59880;SDS011;45751;51.380;10.326;2023-11-18T07:42:31;7.22;;;2.63;;
59880;SDS011;45751;51.380;10.326;2023-11-18T07:45:03;7.32;;;2.53;;
59880;SDS011;45751;51.380;10.326;2023-11-18T07:47:38;5.80;;;2.70;;
59880;SDS011;45751;51.380;10.326;2023-11-18T07:50:04;7.13;;;2.83;;
59880;SDS011;45751;51.380;10.326;2023-11-18T07:52:31;6.63;;;2.40;;
59880;SDS011;45751;51.380;10.326;2023-11-18T07:54:56;5.57;;;2.17;;
59880;SDS011;45751;51.380;10.326;2023-11-18T07:57:22;4.43;;;1.42;;
59880;SDS011;45751;51.380;10.326;2023-11-18T07:59:49;5.80;;;2.55;;
59880;SDS011;45751;51.380;10.326;2023-11-18T08:02:15;6.45;;;2.83;;
59880;SDS011;45751;51.380;10.326;2023-11-18T08:04:42;8.40;;;2.70;;
59880;SDS011;45751;51.380;10.326;2023-11-18T08:07:07;6.93;;;2.83;;
59880;SDS011;45751;51.380;10.326;2023-11-18T08:09:35;5.00;;;1.98;;
59880;SDS011;45751;51.380;10.326;2023-11-18T08:12:04;5.75;;;1.60;;
59880;SDS011;45751;51.380;10.326;2023-11-18T08:14:34;7.95;;;1.90;;
59880;SDS011;45751;51.380;10.326;2023-11-18T08:17:00;7.80;;;3.40;;
59880;SDS011;45751;51.380;10.326;2023-11-18T08:19:26;6.97;;;1.65;;
59880;SDS011;45751;51.380;10.326;2023-11-18T08:21:52;5.22;;;2.22;;
59880;SDS011;45751;51.380;10.326;2023-11-18T08:24:18;5.18;;;2.22;;
59880;SDS011;45751;51.380;10.326;2023-11-18T08:26:45;7.63;;;2.45;;
59880;SDS011;45751;51.380;10.326;2023-11-18T08:29:11;6.57;;;1.83;;
59880;SDS011;45751;51.380;10.326;2023-11-18T08:31:38;6.55;;;2.83;;
59880;SDS011;45751;51.380;10.326;2023-11-18T08:34:04;6.93;;;3.08;;
59880;SDS011;45751;51.380;10.326;2023-11-18T08:36:30;8.40;;;2.75;;
59880;SDS011;45751;51.380;10.326;2023-11-18T08:38:57;9.60;;;3.30;;
59880;SDS011;45751;51.380;10.326;2023-11-18T08:41:23;8.60;;;2.55;;
59880;SDS011;45751;51.380;10.326;2023-11-18T08:43:49;7.63;;;3.08;;
59880;SDS011;45751;51.380;10.326;2023-11-18T08:46:15;8.07;;;3.55;;
59880;SDS011;45751;51.380;10.326;2023-11-18T08:48:41;7.43;;;2.55;;
59880;SDS011;45751;51.380;10.326;2023-11-18T08:51:09;6.28;;;2.88;;
59880;SDS011;45751;51.380;10.326;2023-11-18T08:53:36;7.18;;;3.35;;
59880;SDS011;45751;51.380;10.326;2023-11-18T08:56:09;6.40;;;2.25;;
59880;SDS011;45751;51.380;10.326;2023-11-18T08:58:41;7.63;;;2.58;;
59880;SDS011;45751;51.380;10.326;2023-11-18T09:01:09;8.32;;;3.25;;
59880;SDS011;45751;51.380;10.326;2023-11-18T09:03:40;9.55;;;4.20;;
59880;SDS011;45751;51.380;10.326;2023-11-18T09:06:13;8.77;;;2.40;;
59880;SDS011;45751;51.380;10.326;2023-11-18T09:08:43;7.05;;;2.92;;
59880;SDS011;45751;51.380;10.326;2023-11-18T09:11:17;7.35;;;3.58;;
59880;SDS011;45751;51.380;10.326;2023-11-18T09:13:46;5.70;;;2.25;;
59880;SDS011;45751;51.380;10.326;2023-11-18T09:16:14;8.32;;;3.40;;
59880;SDS011;45751;51.380;10.326;2023-11-18T09:18:42;8.82;;;3.80;;
59880;SDS011;45751;51.380;10.326;2023-11-18T09:21:12;14.50;;;5.78;;
59880;SDS011;45751;51.380;10.326;2023-11-18T09:23:44;13.65;;;5.32;;
59880;SDS011;45751;51.380;10.326;2023-11-18T09:26:12;8.85;;;4.43;;
59880;SDS011;45751;51.380;10.326;2023-11-18T09:28:39;22.08;;;9.52;;
59880;SDS011;45751;51.380;10.326;2023-11-18T09:31:06;12.77;;;6.60;;
59880;SDS011;45751;51.380;10.326;2023-11-18T09:33:36;11.73;;;4.15;;
59880;SDS011;45751;51.380;10.326;2023-11-18T09:36:07;8.93;;;3.22;;
59880;SDS011;45751;51.380;10.326;2023-11-18T09:38:40;9.48;;;4.13;;
59880;SDS011;45751;51.380;10.326;2023-11-18T09:41:07;7.85;;;3.15;;
59880;SDS011;45751;51.380;10.326;2023-11-18T09:43:39;9.30;;;3.97;;
59880;SDS011;45751;51.380;10.326;2023-11-18T09:48:48;15.35;;;4.38;;
59880;SDS011;45751;51.380;10.326;2023-11-18T09:53:51;7.10;;;2.22;;
59880;SDS011;45751;51.380;10.326;2023-11-18T09:59:25;12.65;;;5.93;;
59880;SDS011;45751;51.380;10.326;2023-11-18T10:01:56;10.80;;;4.20;;
59880;SDS011;45751;51.380;10.326;2023-11-18T10:04:25;7.68;;;3.95;;
59880;SDS011;45751;51.380;10.326;2023-11-18T10:06:55;9.20;;;3.97;;
59880;SDS011;45751;51.380;10.326;2023-11-18T10:09:25;9.00;;;3.60;;
59880;SDS011;45751;51.380;10.326;2023-11-18T10:12:05;8.15;;;4.03;;
59880;SDS011;45751;51.380;10.326;2023-11-18T10:14:36;10.13;;;3.25;;
59880;SDS011;45751;51.380;10.326;2023-11-18T10:17:06;7.82;;;3.50;;
59880;SDS011;45751;51.380;10.326;2023-11-18T10:22:27;9.80;;;4.22;;
59880;SDS011;45751;51.380;10.326;2023-11-18T10:24:54;8.95;;;3.60;;
59880;SDS011;45751;51.380;10.326;2023-11-18T10:27:22;9.82;;;3.67;;
59880;SDS011;45751;51.380;10.326;2023-11-18T10:29:49;6.07;;;2.60;;
59880;SDS011;45751;51.380;10.326;2023-11-18T10:32:17;13.98;;;3.50;;
59880;SDS011;45751;51.380;10.326;2023-11-18T10:34:47;12.75;;;4.57;;
59880;SDS011;45751;51.380;10.326;2023-11-18T10:37:14;10.45;;;4.13;;
59880;SDS011;45751;51.380;10.326;2023-11-18T10:39:46;9.52;;;3.85;;
59880;SDS011;45751;51.380;10.326;2023-11-18T10:42:22;12.90;;;3.77;;
59880;SDS011;45751;51.380;10.326;2023-11-18T10:44:59;9.50;;;4.20;;
59880;SDS011;45751;51.380;10.326;2023-11-18T10:47:28;7.45;;;3.30;;
59880;SDS011;45751;51.380;10.326;2023-11-18T10:49:58;8.30;;;3.55;;
59880;SDS011;45751;51.380;10.326;2023-11-18T10:52:24;9.15;;;3.65;;
59880;SDS011;45751;51.380;10.326;2023-11-18T10:55:00;11.20;;;4.20;;
59880;SDS011;45751;51.380;10.326;2023-11-18T10:57:32;8.20;;;3.47;;
59880;SDS011;45751;51.380;10.326;2023-11-18T11:00:04;10.63;;;3.90;;
59880;SDS011;45751;51.380;10.326;2023-11-18T11:02:41;9.05;;;3.22;;
59880;SDS011;45751;51.380;10.326;2023-11-18T11:05:07;9.13;;;3.00;;
59880;SDS011;45751;51.380;10.326;2023-11-18T11:07:41;9.48;;;4.38;;
59880;SDS011;45751;51.380;10.326;2023-11-18T11:10:07;11.68;;;4.32;;
59880;SDS011;45751;51.380;10.326;2023-11-18T11:12:39;10.48;;;3.88;;
59880;SDS011;45751;51.380;10.326;2023-11-18T11:15:26;11.82;;;3.35;;
59880;SDS011;45751;51.380;10.326;2023-11-18T11:17:58;8.65;;;3.63;;
59880;SDS011;45751;51.380;10.326;2023-11-18T11:20:37;9.25;;;4.13;;
59880;SDS011;45751;51.380;10.326;2023-11-18T11:28:37;8.98;;;3.13;;
59880;SDS011;45751;51.380;10.326;2023-11-18T11:31:21;9.55;;;4.35;;
59880;SDS011;45751;51.380;10.326;2023-11-18T11:33:58;10.07;;;4.28;;
59880;SDS011;45751;51.380;10.326;2023-11-18T11:36:37;9.77;;;3.80;;
59880;SDS011;45751;51.380;10.326;2023-11-18T11:39:07;8.60;;;3.83;;
59880;SDS011;45751;51.380;10.326;2023-11-18T11:41:46;9.27;;;3.55;;
59880;SDS011;45751;51.380;10.326;2023-11-18T11:44:16;8.80;;;3.33;;
59880;SDS011;45751;51.380;10.326;2023-11-18T11:46:45;9.55;;;3.35;;
59880;SDS011;45751;51.380;10.326;2023-11-18T11:49:18;10.88;;;4.63;;
59880;SDS011;45751;51.380;10.326;2023-11-18T11:51:49;9.68;;;3.78;;
59880;SDS011;45751;51.380;10.326;2023-11-18T11:54:26;10.32;;;4.78;;
59880;SDS011;45751;51.380;10.326;2023-11-18T11:56:55;8.52;;;3.92;;
59880;SDS011;45751;51.380;10.326;2023-11-18T12:02:15;8.38;;;3.13;;
59880;SDS011;45751;51.380;10.326;2023-11-18T12:04:49;7.70;;;3.35;;
59880;SDS011;45751;51.380;10.326;2023-11-18T12:07:22;10.43;;;4.22;;
59880;SDS011;45751;51.380;10.326;2023-11-18T12:09:54;9.25;;;3.20;;
59880;SDS011;45751;51.380;10.326;2023-11-18T12:12:25;12.60;;;5.90;;
59880;SDS011;45751;51.380;10.326;2023-11-18T12:14:52;11.00;;;4.45;;
59880;SDS011;45751;51.380;10.326;2023-11-18T12:17:23;10.02;;;4.10;;
59880;SDS011;45751;51.380;10.326;2023-11-18T12:19:53;11.52;;;4.97;;
59880;SDS011;45751;51.380;10.326;2023-11-18T12:22:24;8.25;;;4.57;;
59880;SDS011;45751;51.380;10.326;2023-11-18T12:46:52;9.73;;;3.53;;
59880;SDS011;45751;51.380;10.326;2023-11-18T12:49:20;9.77;;;3.22;;
59880;SDS011;45751;51.380;10.326;2023-11-18T12:51:51;12.30;;;4.45;;
59880;SDS011;45751;51.380;10.326;2023-11-18T12:54:18;11.30;;;4.47;;
59880;SDS011;45751;51.380;10.326;2023-11-18T12:56:45;9.07;;;3.40;;
59880;SDS011;45751;51.380;10.326;2023-11-18T12:59:15;10.25;;;3.22;;
59880;SDS011;45751;51.380;10.326;2023-11-18T13:01:46;9.38;;;3.58;;
59880;SDS011;45751;51.380;10.326;2023-11-18T13:04:18;7.53;;;3.40;;
59880;SDS011;45751;51.380;10.326;2023-11-18T13:06:47;10.20;;;2.92;;
59880;SDS011;45751;51.380;10.326;2023-11-18T13:09:14;10.20;;;4.10;;
59880;SDS011;45751;51.380;10.326;2023-11-18T13:11:53;8.73;;;3.35;;
59880;SDS011;45751;51.380;10.326;2023-11-18T13:14:23;9.20;;;2.42;;
59880;SDS011;45751;51.380;10.326;2023-11-18T13:16:54;10.75;;;3.58;;
59880;SDS011;45751;51.380;10.326;2023-11-18T13:19:27;9.50;;;3.42;;
59880;SDS011;45751;51.380;10.326;2023-11-18T13:22:00;9.48;;;3.17;;
59880;SDS011;45751;51.380;10.326;2023-11-18T13:24:29;9.10;;;3.15;;
59880;SDS011;45751;51.380;10.326;2023-11-18T13:26:56;9.63;;;3.80;;
59880;SDS011;45751;51.380;10.326;2023-11-18T13:29:23;6.90;;;2.80;;
59880;SDS011;45751;51.380;10.326;2023-11-18T13:31:52;9.93;;;3.65;;
59880;SDS011;45751;51.380;10.326;2023-11-18T13:34:19;8.38;;;3.58;;
59880;SDS011;45751;51.380;10.326;2023-11-18T13:36:46;8.90;;;3.47;;
59880;SDS011;45751;51.380;10.326;2023-11-18T13:39:16;9.68;;;3.90;;
59880;SDS011;45751;51.380;10.326;2023-11-18T13:41:43;8.43;;;3.22;;
59880;SDS011;45751;51.380;10.326;2023-11-18T13:44:10;8.00;;;2.92;;
59880;SDS011;45751;51.380;10.326;2023-11-18T13:46:38;8.65;;;3.45;;
59880;SDS011;45751;51.380;10.326;2023-11-18T13:49:07;9.15;;;3.35;;
59880;SDS011;45751;51.380;10.326;2023-11-18T13:51:33;8.88;;;3.67;;
59880;SDS011;45751;51.380;10.326;2023-11-18T13:54:00;7.95;;;3.08;;
59880;SDS011;45751;51.380;10.326;2023-11-18T13:56:27;10.18;;;4.13;;
59880;SDS011;45751;51.380;10.326;2023-11-18T13:58:53;10.40;;;4.63;;
59880;SDS011;45751;51.380;10.326;2023-11-18T14:01:19;7.53;;;3.45;;
59880;SDS011;45751;51.380;10.326;2023-11-18T14:03:46;11.65;;;4.03;;
59880;SDS011;45751;51.380;10.326;2023-11-18T14:06:13;10.75;;;4.85;;
59880;SDS011;45751;51.380;10.326;2023-11-18T14:08:42;9.88;;;3.78;;
59880;SDS011;45751;51.380;10.326;2023-11-18T14:11:09;8.82;;;3.83;;
59880;SDS011;45751;51.380;10.326;2023-11-18T14:13:35;6.95;;;2.95;;
59880;SDS011;45751;51.380;10.326;2023-11-18T14:16:02;12.82;;;3.83;;
59880;SDS011;45751;51.380;10.326;2023-11-18T14:18:29;10.45;;;4.20;;
59880;SDS011;45751;51.380;10.326;2023-11-18T14:20:55;11.60;;;4.97;;
59880;SDS011;45751;51.380;10.326;2023-11-18T14:23:21;8.35;;;3.78;;
59880;SDS011;45751;51.380;10.326;2023-11-18T14:25:47;9.18;;;3.97;;
59880;SDS011;45751;51.380;10.326;2023-11-18T14:28:13;18.60;;;6.25;;
59880;SDS011;45751;51.380;10.326;2023-11-18T14:30:40;30.80;;;14.13;;
59880;SDS011;45751;51.380;10.326;2023-11-18T14:33:06;16.42;;;7.70;;
59880;SDS011;45751;51.380;10.326;2023-11-18T14:35:34;12.02;;;4.93;;
59880;SDS011;45751;51.380;10.326;2023-11-18T14:38:01;10.82;;;4.80;;
59880;SDS011;45751;51.380;10.326;2023-11-18T14:40:27;8.77;;;4.25;;
59880;SDS011;45751;51.380;10.326;2023-11-18T14:42:53;9.95;;;3.75;;
59880;SDS011;45751;51.380;10.326;2023-11-18T14:45:19;12.05;;;4.60;;
59880;SDS011;45751;51.380;10.326;2023-11-18T14:47:45;9.80;;;4.53;;
59880;SDS011;45751;51.380;10.326;2023-11-18T14:52:52;6.88;;;3.00;;
59880;SDS011;45751;51.380;10.326;2023-11-18T14:55:29;10.00;;;3.90;;
59880;SDS011;45751;51.380;10.326;2023-11-18T14:58:00;10.32;;;4.15;;
59880;SDS011;45751;51.380;10.326;2023-11-18T15:00:26;11.73;;;4.55;;
59880;SDS011;45751;51.380;10.326;2023-11-18T15:02:53;7.35;;;3.45;;
59880;SDS011;45751;51.380;10.326;2023-11-18T15:05:20;8.73;;;3.17;;
59880;SDS011;45751;51.380;10.326;2023-11-18T15:07:47;9.75;;;3.97;;
59880;SDS011;45751;51.380;10.326;2023-11-18T15:10:15;13.38;;;4.72;;
59880;SDS011;45751;51.380;10.326;2023-11-18T15:12:48;11.27;;;4.50;;
59880;SDS011;45751;51.380;10.326;2023-11-18T15:15:21;9.70;;;4.38;;
59880;SDS011;45751;51.380;10.326;2023-11-18T15:17:48;10.23;;;4.25;;
59880;SDS011;45751;51.380;10.326;2023-11-18T15:20:17;11.95;;;4.60;;
59880;SDS011;45751;51.380;10.326;2023-11-18T15:22:44;11.18;;;4.25;;